createdAt,value
2018-09-22T00:01:49.674Z,4.1
2018-09-22T00:18:35.995Z,4.1
2018-09-22T00:35:22.450Z,4.1
2018-09-22T00:52:08.271Z,4.0
2018-09-22T01:08:54.273Z,4.0
2018-09-22T01:25:40.271Z,4.0
2018-09-22T01:42:26.441Z,4.0
2018-09-22T01:59:12.649Z,4.0
2018-09-22T02:15:59.662Z,4.0
2018-09-22T02:32:45.237Z,4.0
2018-09-22T02:49:31.550Z,4.0
2018-09-22T03:06:17.691Z,3.9
2018-09-22T03:23:03.732Z,3.9
2018-09-22T03:39:49.868Z,3.9
2018-09-22T03:56:35.964Z,3.9
2018-09-22T04:13:22.088Z,3.9
2018-09-22T04:30:08.189Z,3.9
2018-09-22T04:46:54.205Z,3.9
2018-09-22T05:03:40.156Z,3.9
2018-09-22T05:20:26.250Z,3.9
2018-09-22T05:37:12.306Z,3.9
2018-09-22T05:53:58.441Z,3.9
2018-09-22T06:10:44.639Z,3.9
2018-09-22T06:27:30.732Z,3.9
2018-09-22T06:44:16.814Z,4.0
2018-09-22T07:01:02.828Z,4.1
2018-09-22T07:17:48.772Z,4.2
2018-09-22T07:34:41.059Z,4.3
2018-09-22T07:51:21.942Z,4.4
2018-09-22T08:08:08.646Z,4.5
2018-09-22T08:24:55.301Z,4.5
2018-09-22T08:41:42.368Z,4.5
2018-09-22T08:58:29.531Z,4.6
2018-09-22T09:15:16.749Z,4.5
2018-09-22T09:32:03.950Z,4.5
2018-09-22T09:48:51.463Z,4.5
2018-09-22T10:05:39.639Z,4.5
2018-09-22T10:22:27.065Z,4.6
2018-09-22T10:39:14.747Z,4.6
2018-09-22T10:56:02.837Z,4.5
2018-09-22T11:12:51.032Z,4.6
2018-09-22T11:29:39.359Z,4.5
2018-09-22T11:46:27.648Z,4.5
2018-09-22T12:03:15.864Z,4.6
2018-09-22T12:20:04.183Z,4.6
2018-09-22T12:36:52.458Z,4.5
2018-09-22T12:53:40.920Z,4.5
2018-09-22T13:10:29.169Z,4.5
2018-09-22T13:27:17.477Z,4.5
2018-09-22T13:44:05.673Z,4.5
2018-09-22T14:00:53.943Z,4.5
2018-09-22T14:17:42.108Z,4.5
2018-09-22T14:34:30.344Z,4.5
2018-09-22T14:51:18.451Z,4.5
2018-09-22T15:08:07.725Z,4.4
2018-09-22T15:24:54.695Z,4.4
2018-09-22T15:41:42.601Z,4.4
2018-09-22T15:58:30.556Z,4.4
2018-09-22T16:15:18.726Z,4.3
2018-09-22T16:32:06.808Z,4.3
2018-09-22T16:48:54.909Z,4.3
2018-09-22T17:05:42.954Z,4.3
2018-09-22T17:22:31.079Z,4.3
2018-09-22T17:39:18.458Z,4.2
2018-09-22T17:56:05.763Z,4.2
2018-09-22T18:12:52.839Z,4.2
2018-09-22T18:29:39.981Z,4.2
2018-09-22T18:46:27.645Z,4.2
2018-09-22T19:03:14.241Z,4.2
2018-09-22T19:20:06.594Z,4.2
2018-09-22T19:36:48.389Z,4.2
2018-09-22T19:53:35.411Z,4.2
2018-09-22T20:10:22.504Z,4.1
2018-09-22T20:27:09.284Z,4.1
2018-09-22T20:43:56.149Z,4.1
2018-09-22T21:00:42.993Z,4.1
2018-09-22T21:17:29.859Z,4.1
2018-09-22T21:34:16.813Z,4.1
2018-09-22T21:51:03.649Z,4.1
2018-09-22T22:07:50.454Z,4.1
2018-09-22T22:24:37.355Z,4.1
2018-09-22T22:41:24.181Z,4.1
2018-09-22T22:58:10.968Z,4.0
2018-09-22T23:14:57.772Z,4.0
2018-09-22T23:31:44.519Z,4.0
2018-09-22T23:48:31.408Z,4.0
